createdAt,value
2023-02-22T00:01:51.268Z,43.71
2023-02-22T00:04:21.350Z,42.61
2023-02-22T00:06:50.023Z,42.42
2023-02-22T00:09:20.774Z,42.68
2023-02-22T00:11:49.546Z,42.18
2023-02-22T00:14:20.410Z,42.51
2023-02-22T00:16:48.323Z,41.83
2023-02-22T00:19:15.891Z,41.01
2023-02-22T00:21:44.886Z,41.04
2023-02-22T00:24:23.294Z,40.72
2023-02-22T00:26:56.429Z,40.47
2023-02-22T00:29:25.648Z,40.01
2023-02-22T00:31:54.088Z,40.08
2023-02-22T00:34:24.150Z,40.55
2023-02-22T00:36:52.387Z,40.52
2023-02-22T00:39:20.298Z,40.10
2023-02-22T00:41:48.070Z,39.30
2023-02-22T00:44:15.762Z,38.85
2023-02-22T00:46:43.257Z,39.85
2023-02-22T00:49:10.734Z,39.78
2023-02-22T00:51:38.424Z,40.80
2023-02-22T00:54:05.937Z,40.30
2023-02-22T00:56:35.244Z,40.38
2023-02-22T00:59:03.582Z,40.99
2023-02-22T01:01:31.998Z,41.56
2023-02-22T01:03:59.511Z,41.13
2023-02-22T01:06:27.141Z,40.95
2023-02-22T01:08:54.670Z,42.49
2023-02-22T01:11:22.425Z,42.89
2023-02-22T01:13:49.865Z,43.28
2023-02-22T01:16:17.432Z,43.33
2023-02-22T01:18:44.971Z,42.96
2023-02-22T01:21:13.053Z,43.92
2023-02-22T01:23:44.241Z,44.01
2023-02-22T01:26:11.794Z,44.03
2023-02-22T01:28:39.717Z,44.76
2023-02-22T01:31:07.301Z,44.78
2023-02-22T01:33:34.784Z,44.47
2023-02-22T01:36:02.293Z,43.59
2023-02-22T01:38:29.772Z,44.35
2023-02-22T01:40:57.250Z,44.04
2023-02-22T01:43:33.177Z,44.19
2023-02-22T01:46:26.715Z,44.95
2023-02-22T01:49:06.616Z,44.49
2023-02-22T01:51:40.809Z,43.76
2023-02-22T01:54:24.227Z,43.34
2023-02-22T01:57:16.405Z,42.94
2023-02-22T01:59:48.463Z,43.22
2023-02-22T02:02:17.238Z,44.01
2023-02-22T02:04:45.204Z,43.19
2023-02-22T02:07:15.342Z,43.36
2023-02-22T02:09:53.430Z,44.20
2023-02-22T02:12:23.383Z,44.97
2023-02-22T02:14:51.960Z,45.02
2023-02-22T02:17:23.847Z,45.17
2023-02-22T02:20:17.628Z,45.57
2023-02-22T02:23:22.697Z,46.33
2023-02-22T02:26:10.391Z,46.49
2023-02-22T02:29:31.730Z,46.65
2023-02-22T02:32:11.404Z,46.66
2023-02-22T02:35:30.886Z,46.90
2023-02-22T02:38:21.905Z,47.12
2023-02-22T02:41:12.833Z,47.35
2023-02-22T02:43:54.408Z,47.84
2023-02-22T02:46:26.993Z,47.95
2023-02-22T02:49:06.406Z,48.82
2023-02-22T02:51:41.292Z,48.14
2023-02-22T02:54:11.081Z,48.30
2023-02-22T02:56:38.915Z,48.83
2023-02-22T02:59:26.631Z,49.41
2023-02-22T03:02:24.867Z,49.70
2023-02-22T03:05:01.162Z,49.48
2023-02-22T03:07:58.634Z,48.60
2023-02-22T03:10:56.965Z,48.55
2023-02-22T03:13:55.716Z,48.39
2023-02-22T03:16:56.871Z,48.24
2023-02-22T03:19:46.090Z,48.41
2023-02-22T03:22:44.195Z,47.81
2023-02-22T03:25:20.619Z,48.05
2023-02-22T03:27:56.294Z,48.51
2023-02-22T03:30:38.058Z,48.44
2023-02-22T03:33:20.476Z,49.27
2023-02-22T03:35:57.162Z,49.58
2023-02-22T03:38:30.401Z,49.24
2023-02-22T03:41:03.070Z,49.57
2023-02-22T03:43:51.103Z,48.97
2023-02-22T03:46:19.557Z,49.79
2023-02-22T03:49:03.003Z,50.05
2023-02-22T03:51:34.329Z,49.57
2023-02-22T03:54:04.161Z,49.81
2023-02-22T03:56:47.449Z,49.35
2023-02-22T03:59:16.235Z,49.54
2023-02-22T04:01:44.719Z,49.99
2023-02-22T04:04:12.271Z,50.84
2023-02-22T04:06:40.141Z,50.81
2023-02-22T04:09:08.667Z,50.79
2023-02-22T04:11:36.236Z,50.75
2023-02-22T04:14:04.486Z,50.63
2023-02-22T04:16:31.990Z,49.86
2023-02-22T04:19:00.308Z,50.38
2023-02-22T04:21:28.085Z,50.21
2023-02-22T04:23:55.691Z,50.69
2023-02-22T04:26:23.756Z,50.40
2023-02-22T04:28:55.515Z,50.02
2023-02-22T04:31:25.082Z,50.21
2023-02-22T04:33:54.561Z,50.47
2023-02-22T04:36:27.355Z,50.55
2023-02-22T04:38:55.208Z,50.56
2023-02-22T04:41:25.249Z,49.05
2023-02-22T04:43:53.305Z,47.98
2023-02-22T04:46:25.655Z,49.58
2023-02-22T04:48:54.718Z,49.69
2023-02-22T04:51:28.323Z,49.41
2023-02-22T04:54:17.639Z,49.95
2023-02-22T04:56:47.748Z,49.69
2023-02-22T04:59:15.397Z,50.20
2023-02-22T05:01:45.799Z,49.29
2023-02-22T05:04:13.553Z,50.04
2023-02-22T05:06:42.685Z,49.29
2023-02-22T05:09:10.183Z,47.98
2023-02-22T05:11:37.800Z,48.95
2023-02-22T05:14:08.309Z,48.03
2023-02-22T05:16:35.994Z,48.60
2023-02-22T05:19:04.091Z,49.06
2023-02-22T05:21:31.566Z,49.20
2023-02-22T05:23:59.031Z,49.33
2023-02-22T05:26:26.588Z,48.23
2023-02-22T05:28:54.027Z,48.54
2023-02-22T05:31:22.892Z,48.28
2023-02-22T05:33:50.445Z,48.48
2023-02-22T05:36:18.072Z,48.02
2023-02-22T05:38:45.553Z,48.27
2023-02-22T05:41:14.472Z,46.76
2023-02-22T05:43:42.682Z,46.42
2023-02-22T05:46:10.176Z,47.18
2023-02-22T05:48:37.740Z,48.48
2023-02-22T05:51:05.728Z,48.73
2023-02-22T05:53:33.439Z,48.86
2023-02-22T05:56:00.862Z,49.01
2023-02-22T05:58:28.523Z,48.35
2023-02-22T06:00:56.162Z,47.85
2023-02-22T06:03:23.609Z,46.59
2023-02-22T06:05:51.158Z,46.55
2023-02-22T06:08:18.577Z,48.71
2023-02-22T06:10:46.019Z,46.85
2023-02-22T06:13:13.547Z,46.88
2023-02-22T06:15:41.009Z,47.56
2023-02-22T06:18:08.527Z,47.59
2023-02-22T06:20:36.002Z,46.39
2023-02-22T06:23:03.492Z,46.00
2023-02-22T06:25:31.915Z,45.89
2023-02-22T06:28:00.892Z,45.80
2023-02-22T06:30:30.443Z,45.23
2023-02-22T06:32:58.301Z,46.30
2023-02-22T06:35:25.758Z,46.41
2023-02-22T06:37:53.566Z,46.52
2023-02-22T06:40:21.128Z,46.91
2023-02-22T06:42:50.006Z,46.98
2023-02-22T06:45:18.876Z,46.51
2023-02-22T06:47:47.194Z,46.15
2023-02-22T06:50:28.972Z,46.07
2023-02-22T06:52:57.639Z,47.31
2023-02-22T06:55:31.776Z,48.07
2023-02-22T06:58:00.539Z,47.57
2023-02-22T07:00:32.726Z,52.35
2023-02-22T07:03:01.084Z,51.87
2023-02-22T07:05:29.485Z,51.55
2023-02-22T07:08:05.440Z,51.02
2023-02-22T07:10:35.610Z,49.21
2023-02-22T07:13:05.139Z,47.36
2023-02-22T07:15:35.147Z,45.41
2023-02-22T07:18:03.288Z,44.60
2023-02-22T07:20:31.936Z,44.99
2023-02-22T07:23:01.319Z,44.72
2023-02-22T07:25:28.797Z,44.34
2023-02-22T07:27:56.377Z,44.82
2023-02-22T07:30:34.495Z,44.95
2023-02-22T07:33:06.216Z,42.33
2023-02-22T07:35:37.893Z,40.05
2023-02-22T07:38:08.180Z,39.50
2023-02-22T07:40:37.424Z,38.51
2023-02-22T07:43:29.653Z,38.17
2023-02-22T07:46:02.926Z,37.90
2023-02-22T07:48:32.736Z,37.62
2023-02-22T07:51:00.433Z,38.09
2023-02-22T07:53:31.711Z,37.15
2023-02-22T07:56:00.151Z,36.85
2023-02-22T07:58:30.888Z,36.43
2023-02-22T08:01:02.215Z,37.03
2023-02-22T08:03:36.486Z,37.25
2023-02-22T08:06:10.191Z,37.09
2023-02-22T08:08:37.653Z,37.53
2023-02-22T08:11:05.986Z,37.44
2023-02-22T08:13:33.752Z,36.45
2023-02-22T08:16:01.286Z,37.12
2023-02-22T08:18:28.770Z,36.75
2023-02-22T08:20:56.850Z,37.02
2023-02-22T08:23:27.099Z,36.75
2023-02-22T08:25:56.026Z,35.40
2023-02-22T08:28:25.344Z,35.15
2023-02-22T08:30:53.652Z,34.99
2023-02-22T08:33:21.861Z,34.79
2023-02-22T08:35:51.682Z,34.87
2023-02-22T08:38:34.134Z,35.15
2023-02-22T08:41:01.703Z,34.31
2023-02-22T08:43:29.165Z,35.20
2023-02-22T08:45:57.808Z,34.42
2023-02-22T08:48:25.510Z,33.58
2023-02-22T08:50:53.035Z,33.69
2023-02-22T08:53:20.605Z,33.55
2023-02-22T08:55:48.110Z,33.88
2023-02-22T08:58:15.748Z,32.50
2023-02-22T09:00:44.823Z,33.10
2023-02-22T09:03:16.285Z,32.26
2023-02-22T09:05:47.348Z,32.97
2023-02-22T09:08:17.530Z,32.38
2023-02-22T09:10:45.440Z,31.76
2023-02-22T09:13:13.447Z,31.93
2023-02-22T09:15:41.046Z,31.73
2023-02-22T09:18:12.490Z,31.18
2023-02-22T09:20:40.298Z,31.34
2023-02-22T09:23:11.923Z,30.38
2023-02-22T09:25:40.965Z,30.36
2023-02-22T09:28:09.181Z,30.01
2023-02-22T09:30:37.613Z,29.05
2023-02-22T09:33:13.686Z,28.83
2023-02-22T09:35:46.453Z,29.66
2023-02-22T09:38:22.869Z,28.67
2023-02-22T09:40:57.425Z,28.88
2023-02-22T09:43:24.892Z,27.35
2023-02-22T09:46:23.460Z,27.37
2023-02-22T09:49:07.831Z,27.84
2023-02-22T09:51:52.641Z,28.33
2023-02-22T09:54:34.288Z,28.20
2023-02-22T09:57:09.697Z,27.73
2023-02-22T09:59:46.466Z,28.40
2023-02-22T10:02:35.436Z,27.30
2023-02-22T10:05:18.413Z,28.94
2023-02-22T10:07:56.121Z,28.12
2023-02-22T10:10:27.003Z,27.81
2023-02-22T10:13:27.198Z,27.37
2023-02-22T10:16:12.394Z,27.09
2023-02-22T10:18:57.330Z,26.68
2023-02-22T10:22:01.360Z,26.19
2023-02-22T10:24:31.671Z,26.93
2023-02-22T10:27:00.419Z,26.70
2023-02-22T10:29:54.300Z,26.94
2023-02-22T10:32:45.461Z,26.44
2023-02-22T10:35:28.612Z,27.05
2023-02-22T10:38:26.714Z,27.29
2023-02-22T10:41:02.238Z,26.51
2023-02-22T10:43:31.861Z,26.44
2023-02-22T10:46:04.657Z,26.64
2023-02-22T10:48:37.795Z,26.39
2023-02-22T10:51:11.049Z,26.90
2023-02-22T10:53:39.488Z,26.49
2023-02-22T10:56:24.356Z,25.56
2023-02-22T10:58:59.795Z,25.83
2023-02-22T11:01:33.319Z,26.09
2023-02-22T11:04:16.779Z,26.27
2023-02-22T11:07:23.568Z,25.98
2023-02-22T11:10:08.932Z,26.34
2023-02-22T11:12:42.437Z,25.56
2023-02-22T11:15:19.023Z,25.43
2023-02-22T11:17:50.424Z,25.56
2023-02-22T11:20:35.650Z,25.12
2023-02-22T11:23:08.262Z,24.90
2023-02-22T11:25:40.228Z,25.49
2023-02-22T11:28:30.827Z,25.58
2023-02-22T11:31:22.885Z,25.29
2023-02-22T11:34:04.170Z,25.22
2023-02-22T11:36:51.209Z,24.57
2023-02-22T11:39:28.724Z,24.40
2023-02-22T11:41:57.390Z,24.59
2023-02-22T11:44:32.619Z,22.85
2023-02-22T11:47:07.076Z,23.40
2023-02-22T11:49:42.703Z,24.04
2023-02-22T11:52:30.617Z,23.91
2023-02-22T11:55:41.824Z,23.11
2023-02-22T11:58:46.147Z,22.29
2023-02-22T12:01:40.752Z,21.64
2023-02-22T12:04:49.711Z,22.02
2023-02-22T12:07:30.085Z,21.77
2023-02-22T12:10:06.519Z,20.96
2023-02-22T12:12:58.779Z,21.92
2023-02-22T12:15:48.762Z,21.52
2023-02-22T12:18:35.975Z,22.20
2023-02-22T12:21:12.665Z,20.85
2023-02-22T12:24:17.188Z,21.01
2023-02-22T12:26:56.938Z,20.37
2023-02-22T12:29:48.777Z,19.92
2023-02-22T12:32:47.304Z,20.21
2023-02-22T12:35:29.650Z,20.26
2023-02-22T12:38:24.797Z,19.50
2023-02-22T12:41:18.605Z,19.62
2023-02-22T12:43:58.494Z,19.03
2023-02-22T12:46:54.651Z,19.06
2023-02-22T12:49:39.677Z,19.64
2023-02-22T12:52:35.223Z,19.43
2023-02-22T12:55:22.122Z,19.10
2023-02-22T12:58:09.391Z,19.17
2023-02-22T13:00:56.875Z,18.28
2023-02-22T13:03:39.454Z,18.13
2023-02-22T13:06:32.430Z,18.71
2023-02-22T13:09:26.840Z,18.47
2023-02-22T13:12:08.999Z,18.20
2023-02-22T13:15:10.847Z,18.21
2023-02-22T13:18:23.197Z,17.52
2023-02-22T13:21:32.096Z,17.12
2023-02-22T13:24:12.579Z,16.79
2023-02-22T13:27:23.195Z,16.87
2023-02-22T13:29:59.037Z,17.15
2023-02-22T13:32:53.827Z,16.93
2023-02-22T13:35:56.734Z,16.49
2023-02-22T13:39:04.102Z,16.58
2023-02-22T13:41:52.596Z,16.16
2023-02-22T13:45:03.286Z,16.46
2023-02-22T13:48:09.845Z,15.59
2023-02-22T13:51:16.036Z,15.94
2023-02-22T13:53:49.510Z,15.49
2023-02-22T13:56:18.698Z,15.56
2023-02-22T13:59:02.701Z,15.67
2023-02-22T14:01:48.762Z,15.62
2023-02-22T14:04:28.278Z,15.29
2023-02-22T14:07:02.126Z,14.75
2023-02-22T14:09:51.231Z,15.11
2023-02-22T14:12:31.022Z,14.58
2023-02-22T14:15:28.212Z,15.26
2023-02-22T14:18:13.948Z,15.17
2023-02-22T14:20:43.833Z,14.19
2023-02-22T14:23:42.331Z,14.76
2023-02-22T14:26:28.916Z,14.75
2023-02-22T14:29:05.661Z,14.65
2023-02-22T14:32:08.010Z,14.23
2023-02-22T14:34:50.179Z,14.62
2023-02-22T14:37:24.964Z,14.76
2023-02-22T14:40:18.446Z,15.50
2023-02-22T14:42:53.030Z,14.80
2023-02-22T14:45:29.942Z,16.26
2023-02-22T14:48:36.879Z,17.20
2023-02-22T14:51:21.959Z,17.53
2023-02-22T14:54:09.344Z,15.54
2023-02-22T14:57:12.116Z,15.60
2023-02-22T15:00:08.001Z,15.69
2023-02-22T15:02:43.323Z,17.05
2023-02-22T15:05:15.714Z,17.08
2023-02-22T15:07:56.243Z,17.61
2023-02-22T15:10:39.346Z,17.48
2023-02-22T15:13:20.157Z,17.27
2023-02-22T15:16:00.366Z,17.81
2023-02-22T15:18:40.216Z,17.58
2023-02-22T15:21:13.452Z,17.81
2023-02-22T15:24:08.063Z,18.19
2023-02-22T15:26:59.248Z,19.33
2023-02-22T15:29:39.072Z,19.12
2023-02-22T15:32:49.895Z,19.51
2023-02-22T15:35:29.337Z,20.96
2023-02-22T15:38:21.653Z,22.37
2023-02-22T15:41:08.490Z,23.56
2023-02-22T15:43:38.594Z,23.69
2023-02-22T15:46:11.027Z,24.48
2023-02-22T15:48:41.294Z,24.46
2023-02-22T15:51:13.831Z,24.84
2023-02-22T15:53:53.332Z,25.86
2023-02-22T15:56:32.661Z,26.19
2023-02-22T15:59:23.927Z,26.72
2023-02-22T16:01:53.986Z,27.29
2023-02-22T16:04:29.910Z,28.41
2023-02-22T16:07:17.073Z,29.29
2023-02-22T16:09:50.736Z,29.47
2023-02-22T16:12:20.624Z,29.25
2023-02-22T16:14:50.049Z,30.07
2023-02-22T16:17:41.169Z,29.79
2023-02-22T16:20:18.221Z,30.89
2023-02-22T16:22:49.483Z,30.91
2023-02-22T16:25:21.625Z,31.63
2023-02-22T16:27:59.927Z,31.86
2023-02-22T16:30:33.288Z,31.40
2023-02-22T16:33:13.891Z,31.79
2023-02-22T16:35:51.741Z,31.06
2023-02-22T16:38:21.150Z,31.44
2023-02-22T16:40:53.973Z,32.04
2023-02-22T16:43:29.812Z,32.23
2023-02-22T16:45:58.198Z,32.42
2023-02-22T16:48:30.574Z,32.96
2023-02-22T16:51:07.942Z,32.70
2023-02-22T16:53:35.830Z,33.59
2023-02-22T16:56:09.134Z,34.10
2023-02-22T16:58:41.683Z,34.01
2023-02-22T17:01:15.601Z,34.27
2023-02-22T17:03:47.261Z,34.90
2023-02-22T17:06:14.888Z,34.73
2023-02-22T17:08:43.449Z,35.41
2023-02-22T17:11:13.361Z,35.56
2023-02-22T17:13:41.054Z,36.37
2023-02-22T17:16:16.922Z,37.19
2023-02-22T17:18:46.047Z,36.71
2023-02-22T17:21:16.863Z,36.94
2023-02-22T17:23:50.641Z,36.98
2023-02-22T17:26:21.195Z,37.68
2023-02-22T17:28:50.303Z,38.00
2023-02-22T17:31:25.304Z,37.84
2023-02-22T17:33:52.953Z,37.47
2023-02-22T17:36:24.159Z,38.21
2023-02-22T17:38:52.174Z,38.12
2023-02-22T17:41:19.955Z,38.00
2023-02-22T17:43:56.191Z,38.59
2023-02-22T17:46:26.692Z,38.97
2023-02-22T17:48:54.788Z,39.42
2023-02-22T17:51:27.287Z,39.15
2023-02-22T17:53:57.385Z,39.43
2023-02-22T17:56:27.018Z,39.90
2023-02-22T17:58:56.850Z,40.06
2023-02-22T18:01:30.713Z,40.24
2023-02-22T18:04:06.348Z,40.15
2023-02-22T18:06:36.262Z,40.75
2023-02-22T18:09:10.426Z,40.82
2023-02-22T18:11:40.708Z,41.41
2023-02-22T18:14:12.375Z,41.63
2023-02-22T18:16:41.248Z,41.54
2023-02-22T18:19:11.669Z,41.48
2023-02-22T18:21:39.251Z,41.77
2023-02-22T18:24:07.819Z,41.65
2023-02-22T18:26:39.007Z,42.55
2023-02-22T18:29:07.937Z,42.42
2023-02-22T18:31:35.442Z,42.57
2023-02-22T18:34:25.118Z,42.67
2023-02-22T18:36:55.186Z,42.79
2023-02-22T18:39:23.210Z,42.97
2023-02-22T18:41:50.952Z,42.94
2023-02-22T18:44:19.310Z,43.05
2023-02-22T18:46:47.224Z,43.02
2023-02-22T18:49:15.116Z,43.31
2023-02-22T18:51:43.742Z,42.71
2023-02-22T18:54:15.654Z,44.83
2023-02-22T18:56:43.957Z,45.96
2023-02-22T18:59:14.073Z,46.03
2023-02-22T19:01:49.287Z,46.03
2023-02-22T19:04:18.808Z,45.70
2023-02-22T19:06:49.904Z,45.61
2023-02-22T19:09:18.410Z,45.39
2023-02-22T19:11:47.675Z,45.36
2023-02-22T19:14:19.428Z,44.44
2023-02-22T19:16:52.177Z,44.00
2023-02-22T19:19:22.081Z,44.17
2023-02-22T19:21:54.022Z,44.52
2023-02-22T19:24:24.789Z,44.46
2023-02-22T19:26:57.569Z,44.79
2023-02-22T19:29:25.279Z,44.70
2023-02-22T19:31:53.846Z,44.68
2023-02-22T19:34:26.287Z,45.26
2023-02-22T19:36:54.059Z,45.73
2023-02-22T19:41:58.451Z,47.31
2023-02-22T19:44:29.157Z,46.76
2023-02-22T19:46:59.670Z,46.88
2023-02-22T19:49:30.188Z,46.60
2023-02-22T19:52:00.904Z,47.03
2023-02-22T19:54:30.787Z,47.63
2023-02-22T19:57:00.576Z,47.46
2023-02-22T19:59:31.245Z,47.31
2023-02-22T20:01:59.928Z,45.62
2023-02-22T20:04:30.890Z,46.38
2023-02-22T20:07:02.119Z,47.74
2023-02-22T20:09:36.623Z,49.14
2023-02-22T20:12:09.894Z,48.32
2023-02-22T20:14:39.621Z,48.82
2023-02-22T20:17:10.380Z,49.11
2023-02-22T20:19:40.514Z,47.33
2023-02-22T20:22:11.506Z,48.38
2023-02-22T20:24:39.241Z,48.46
2023-02-22T20:27:09.576Z,49.11
2023-02-22T20:29:37.990Z,49.86
2023-02-22T20:32:06.650Z,49.28
2023-02-22T20:34:37.388Z,49.71
2023-02-22T20:37:06.205Z,49.85
2023-02-22T20:39:33.693Z,50.06
2023-02-22T20:42:03.059Z,50.83
2023-02-22T20:44:30.685Z,51.56
2023-02-22T20:46:59.130Z,51.75
2023-02-22T20:49:27.369Z,51.84
2023-02-22T20:51:57.679Z,51.66
2023-02-22T20:54:25.238Z,51.86
2023-02-22T20:56:56.054Z,52.19
2023-02-22T20:59:26.548Z,52.73
2023-02-22T21:01:57.326Z,52.95
2023-02-22T21:04:24.963Z,52.25
2023-02-22T21:06:53.668Z,53.09
2023-02-22T21:09:22.166Z,53.26
2023-02-22T21:11:51.139Z,53.86
2023-02-22T21:14:19.867Z,53.47
2023-02-22T21:16:51.702Z,53.13
2023-02-22T21:19:27.627Z,52.64
2023-02-22T21:21:58.043Z,51.71
2023-02-22T21:24:29.168Z,53.31
2023-02-22T21:27:00.548Z,53.69
2023-02-22T21:29:30.213Z,54.37
2023-02-22T21:31:57.963Z,54.56
2023-02-22T21:34:26.245Z,56.07
2023-02-22T21:36:53.917Z,56.43
2023-02-22T21:39:22.716Z,57.48
2023-02-22T21:41:52.828Z,57.96
2023-02-22T21:44:21.911Z,58.71
2023-02-22T21:46:49.868Z,58.33
2023-02-22T21:49:18.430Z,58.00
2023-02-22T21:51:46.316Z,57.98
2023-02-22T21:54:14.311Z,58.13
2023-02-22T21:56:44.117Z,58.99
2023-02-22T21:59:15.551Z,59.74
2023-02-22T22:01:47.931Z,59.91
2023-02-22T22:04:21.657Z,59.46
2023-02-22T22:06:55.066Z,59.53
2023-02-22T22:09:23.710Z,60.59
2023-02-22T22:11:54.650Z,62.19
2023-02-22T22:14:25.678Z,60.76
2023-02-22T22:17:00.180Z,60.93
2023-02-22T22:19:30.035Z,62.24
2023-02-22T22:22:00.420Z,61.11
2023-02-22T22:24:32.128Z,62.43
2023-02-22T22:27:03.848Z,64.04
2023-02-22T22:29:34.570Z,64.80
2023-02-22T22:32:03.266Z,66.85
2023-02-22T22:34:31.147Z,67.80
2023-02-22T22:37:00.394Z,69.02
2023-02-22T22:39:29.557Z,68.68
2023-02-22T22:41:57.082Z,69.15
2023-02-22T22:44:24.618Z,69.61
2023-02-22T22:46:55.088Z,69.89
2023-02-22T22:49:25.462Z,70.00
2023-02-22T22:51:54.501Z,67.16
2023-02-22T22:54:21.986Z,67.55
2023-02-22T22:56:49.429Z,69.08
2023-02-22T22:59:17.992Z,69.79
2023-02-22T23:01:45.568Z,71.20
2023-02-22T23:04:16.590Z,72.12
2023-02-22T23:06:50.790Z,73.51
2023-02-22T23:09:20.774Z,73.10
2023-02-22T23:12:16.660Z,73.13
2023-02-22T23:14:47.070Z,74.33
2023-02-22T23:17:31.101Z,74.63
2023-02-22T23:19:58.951Z,75.68
2023-02-22T23:22:27.914Z,75.48
2023-02-22T23:24:55.343Z,75.22
2023-02-22T23:27:23.823Z,75.41
2023-02-22T23:29:52.495Z,74.90
2023-02-22T23:32:20.179Z,75.38
2023-02-22T23:34:49.872Z,75.57
2023-02-22T23:37:20.658Z,76.79
2023-02-22T23:39:50.897Z,77.30
2023-02-22T23:42:18.444Z,76.67
2023-02-22T23:44:46.227Z,77.21
2023-02-22T23:47:16.054Z,77.73
2023-02-22T23:49:49.400Z,76.93
2023-02-22T23:52:24.220Z,77.61
2023-02-22T23:54:54.088Z,77.16
2023-02-22T23:57:24.128Z,76.97
2023-02-22T23:59:52.775Z,76.71
